Time;durP1;ratioP1;P1;durP2;ratioP2;P2;SDS_P1;SDS_P2;PMS_P1;PMS_P2;Temp;Humidity;BMP_temperature;BMP_pressure;BME280_temperature;BME280_humidity;BME280_pressure;Samples;Min_cycle;Max_cycle;Signal;HPM_P1;HPM_P2
2022/10/21 00:01:24;;;;;;;6.22;3.63;;;;;;;;;;5039490;28;20046;-92
2022/10/21 00:03:52;;;;;;;4.18;3.75;;;;;;;;;;5037255;28;20073;-92
2022/10/21 00:06:19;;;;;;;3.42;2.95;;;;;;;;;;5053150;28;20152;-93
2022/10/21 00:08:46;;;;;;;6.32;3.28;;;;;;;;;;5055918;28;20045;-90
2022/10/21 00:11:14;;;;;;;4.32;2.85;;;;;;;;;;5057934;28;20045;-93
2022/10/21 00:13:41;;;;;;;6.35;3.50;;;;;;;;;;5053034;28;20049;-91
2022/10/21 00:16:10;;;;;;;3.95;3.50;;;;;;;;;;5053874;28;20132;-93
2022/10/21 00:18:38;;;;;;;5.53;3.30;;;;;;;;;;5053413;28;20072;-89
2022/10/21 00:21:10;;;;;;;7.78;3.78;;;;;;;;;;5037734;28;20057;-93
2022/10/21 00:23:37;;;;;;;3.63;3.10;;;;;;;;;;5053304;28;20049;-93
2022/10/21 00:26:05;;;;;;;5.43;4.00;;;;;;;;;;5037031;28;20056;-93
2022/10/21 00:28:32;;;;;;;9.73;3.90;;;;;;;;;;5052226;28;20057;-93
2022/10/21 00:31:01;;;;;;;7.40;3.60;;;;;;;;;;5052171;28;20045;-89
2022/10/21 00:33:30;;;;;;;7.35;4.43;;;;;;;;;;5051982;28;20049;-92
2022/10/21 00:35:59;;;;;;;5.93;3.63;;;;;;;;;;5052955;28;20051;-94
2022/10/21 00:38:26;;;;;;;5.43;3.90;;;;;;;;;;5051262;28;20075;-91
2022/10/21 00:40:53;;;;;;;5.15;3.83;;;;;;;;;;5053321;28;20452;-92
2022/10/21 00:43:21;;;;;;;6.68;3.50;;;;;;;;;;5053439;28;20136;-94
2022/10/21 00:45:49;;;;;;;3.88;3.38;;;;;;;;;;5054067;28;20121;-94
2022/10/21 00:48:38;;;;;;;5.88;3.72;;;;;;;;;;5052702;28;20060;-92
2022/10/21 00:51:06;;;;;;;3.60;3.40;;;;;;;;;;5052279;28;20502;-92
2022/10/21 00:53:35;;;;;;;5.43;3.63;;;;;;;;;;5053601;28;20482;-91
2022/10/21 00:56:07;;;;;;;5.18;3.60;;;;;;;;;;5051447;28;20516;-93
2022/10/21 00:58:39;;;;;;;5.78;4.18;;;;;;;;;;5035971;28;20140;-93
2022/10/21 01:01:07;;;;;;;4.78;3.45;;;;;;;;;;5052976;28;20414;-92
2022/10/21 01:03:35;;;;;;;8.18;4.47;;;;;;;;;;5053454;28;20061;-93
2022/10/21 01:06:07;;;;;;;4.38;3.42;;;;;;;;;;5053648;28;20053;-95
2022/10/21 01:08:37;;;;;;;5.10;4.10;;;;;;;;;;5052592;28;20083;-91
2022/10/21 01:11:06;;;;;;;4.65;4.20;;;;;;;;;;5054203;28;20300;-92
2022/10/21 01:13:39;;;;;;;4.85;3.90;;;;;;;;;;5053083;28;20060;-89
2022/10/21 01:16:39;;;;;;;4.28;3.88;;;;;;;;;;5038518;28;20041;-94
2022/10/21 01:19:21;;;;;;;6.75;4.32;;;;;;;;;;5029840;28;20049;-91
2022/10/21 01:21:57;;;;;;;4.88;3.92;;;;;;;;;;5056492;28;20108;-92
2022/10/21 01:24:27;;;;;;;8.57;3.90;;;;;;;;;;5054923;28;20046;-94
2022/10/21 01:27:15;;;;;;;5.85;4.00;;;;;;;;;;5038055;28;20508;-94
2022/10/21 01:29:45;;;;;;;6.93;3.70;;;;;;;;;;5039454;28;20055;-94
2022/10/21 01:32:20;;;;;;;6.85;3.80;;;;;;;;;;5054854;28;20052;-93
2022/10/21 01:34:54;;;;;;;7.28;3.80;;;;;;;;;;5039007;28;20081;-95
2022/10/21 01:37:23;;;;;;;3.85;3.45;;;;;;;;;;5057809;28;20045;-94
2022/10/21 01:39:56;;;;;;;6.82;4.00;;;;;;;;;;5058125;28;20077;-94
2022/10/21 01:42:26;;;;;;;4.38;3.10;;;;;;;;;;5056700;28;20045;-94
2022/10/21 01:44:58;;;;;;;3.95;3.53;;;;;;;;;;5058008;28;20069;-94
2022/10/21 01:47:27;;;;;;;4.93;3.80;;;;;;;;;;5042405;28;20056;-94
2022/10/21 01:49:57;;;;;;;5.15;3.20;;;;;;;;;;5056144;28;20414;-93
2022/10/21 01:52:24;;;;;;;5.78;3.42;;;;;;;;;;5051438;28;20046;-92
2022/10/21 01:55:03;;;;;;;4.82;3.20;;;;;;;;;;5051576;28;20486;-93
2022/10/21 01:57:33;;;;;;;7.35;3.55;;;;;;;;;;5034467;28;20045;-93
2022/10/21 02:00:00;;;;;;;5.05;3.30;;;;;;;;;;5049740;28;20068;-92
2022/10/21 02:02:30;;;;;;;5.43;3.42;;;;;;;;;;5050801;28;20042;-93
2022/10/21 02:04:59;;;;;;;4.72;3.38;;;;;;;;;;5050621;28;20049;-91
2022/10/21 02:07:26;;;;;;;7.10;3.70;;;;;;;;;;5050450;28;20482;-92
2022/10/21 02:09:53;;;;;;;5.68;3.42;;;;;;;;;;5050308;28;20130;-92
2022/10/21 02:12:22;;;;;;;5.97;3.25;;;;;;;;;;5034797;28;20056;-93
2022/10/21 02:14:50;;;;;;;5.88;3.00;;;;;;;;;;5034306;28;20053;-92
2022/10/21 02:17:19;;;;;;;7.53;3.70;;;;;;;;;;5050112;28;20053;-93
2022/10/21 02:19:46;;;;;;;6.03;3.88;;;;;;;;;;5035349;28;20064;-92
2022/10/21 02:22:18;;;;;;;7.88;4.10;;;;;;;;;;5050023;28;20050;-93
2022/10/21 02:24:50;;;;;;;7.80;4.28;;;;;;;;;;5053421;28;20132;-93
2022/10/21 02:27:17;;;;;;;11.35;4.00;;;;;;;;;;5050077;28;20442;-92
2022/10/21 02:29:46;;;;;;;4.57;3.63;;;;;;;;;;5051736;28;20049;-93
2022/10/21 02:32:16;;;;;;;5.43;4.15;;;;;;;;;;5035468;28;20119;-92
2022/10/21 02:34:43;;;;;;;5.63;3.85;;;;;;;;;;5069842;28;20060;-92
2022/10/21 02:37:25;;;;;;;12.98;4.13;;;;;;;;;;5045827;28;20053;-93
2022/10/21 02:39:56;;;;;;;6.30;3.83;;;;;;;;;;5051261;28;20053;-92
2022/10/21 02:42:26;;;;;;;5.28;3.67;;;;;;;;;;5034206;28;20049;-93
2022/10/21 02:44:54;;;;;;;7.68;3.95;;;;;;;;;;5049047;28;20056;-93
2022/10/21 02:47:23;;;;;;;4.93;3.55;;;;;;;;;;5049083;28;20458;-93
2022/10/21 02:49:50;;;;;;;4.60;3.40;;;;;;;;;;5048769;28;20517;-93
2022/10/21 02:52:17;;;;;;;10.25;4.30;;;;;;;;;;5048583;28;20057;-92
2022/10/21 02:54:45;;;;;;;10.38;4.60;;;;;;;;;;5048819;28;20474;-92
2022/10/21 02:57:12;;;;;;;8.25;4.53;;;;;;;;;;5033432;28;20050;-92
2022/10/21 02:59:39;;;;;;;4.90;4.07;;;;;;;;;;5048800;28;20057;-92
2022/10/21 03:02:07;;;;;;;6.07;4.95;;;;;;;;;;5034386;28;20045;-93
2022/10/21 03:04:34;;;;;;;6.13;4.60;;;;;;;;;;5052604;28;20049;-90
2022/10/21 03:07:01;;;;;;;9.77;4.60;;;;;;;;;;5036716;28;20056;-92
2022/10/21 03:09:28;;;;;;;9.45;4.82;;;;;;;;;;5052422;28;20058;-91
2022/10/21 03:11:55;;;;;;;9.35;6.32;;;;;;;;;;5040287;28;20046;-91
2022/10/21 03:14:23;;;;;;;11.93;5.20;;;;;;;;;;5057144;28;20056;-93
2022/10/21 03:16:50;;;;;;;6.22;4.75;;;;;;;;;;5058713;28;20141;-92
2022/10/21 03:19:17;;;;;;;5.90;4.50;;;;;;;;;;5052808;28;20056;-92
2022/10/21 03:21:44;;;;;;;7.07;4.55;;;;;;;;;;5037203;28;20418;-92
2022/10/21 03:24:11;;;;;;;4.82;4.28;;;;;;;;;;5051871;28;20053;-92
2022/10/21 03:26:53;;;;;;;6.60;4.15;;;;;;;;;;5037247;28;20128;-93
2022/10/21 03:29:20;;;;;;;6.28;4.70;;;;;;;;;;5053675;28;20049;-93
2022/10/21 03:31:48;;;;;;;5.90;4.90;;;;;;;;;;5043280;28;20080;-92
2022/10/21 03:34:15;;;;;;;7.22;4.70;;;;;;;;;;5055148;28;20049;-90
2022/10/21 03:36:42;;;;;;;10.25;7.10;;;;;;;;;;5040000;28;20060;-94
2022/10/21 03:39:10;;;;;;;8.63;5.50;;;;;;;;;;5056727;28;20054;-92
2022/10/21 03:41:37;;;;;;;8.57;4.40;;;;;;;;;;5054962;28;20053;-88
2022/10/21 03:44:05;;;;;;;7.22;4.25;;;;;;;;;;5051839;28;20088;-90
2022/10/21 03:46:32;;;;;;;7.93;4.60;;;;;;;;;;5051972;28;20081;-94
2022/10/21 03:48:59;;;;;;;7.03;4.82;;;;;;;;;;5051759;28;20053;-92
2022/10/21 03:51:31;;;;;;;7.78;4.40;;;;;;;;;;5036282;28;20462;-90
2022/10/21 03:53:58;;;;;;;7.47;4.80;;;;;;;;;;5036852;28;20049;-93
2022/10/21 03:56:26;;;;;;;9.40;4.85;;;;;;;;;;5036136;28;20060;-93
2022/10/21 03:58:53;;;;;;;5.18;4.68;;;;;;;;;;5037659;28;20060;-92
2022/10/21 04:01:25;;;;;;;7.85;5.22;;;;;;;;;;5051950;28;20054;-92
2022/10/21 04:03:53;;;;;;;13.70;6.97;;;;;;;;;;5039034;28;20053;-90
2022/10/21 04:06:20;;;;;;;13.27;7.53;;;;;;;;;;5057267;28;20053;-90
2022/10/21 04:08:47;;;;;;;14.88;8.60;;;;;;;;;;5055799;28;20050;-93
2022/10/21 04:11:15;;;;;;;21.40;7.57;;;;;;;;;;5052665;28;20570;-92
2022/10/21 04:13:42;;;;;;;9.85;7.18;;;;;;;;;;5040296;28;20053;-90
2022/10/21 04:16:12;;;;;;;12.25;6.10;;;;;;;;;;5056238;28;20053;-93
2022/10/21 04:18:39;;;;;;;15.23;6.30;;;;;;;;;;5040485;28;20042;-91
2022/10/21 04:21:07;;;;;;;9.23;6.35;;;;;;;;;;5056860;28;20504;-91
2022/10/21 04:23:35;;;;;;;8.88;6.45;;;;;;;;;;5053311;28;20064;-90
2022/10/21 04:26:03;;;;;;;8.63;6.30;;;;;;;;;;5055129;28;20061;-92
2022/10/21 04:28:30;;;;;;;8.00;6.72;;;;;;;;;;5053115;28;20049;-94
2022/10/21 04:31:00;;;;;;;7.82;6.32;;;;;;;;;;5053607;28;20485;-94
2022/10/21 04:33:31;;;;;;;19.27;6.95;;;;;;;;;;5058688;28;20053;-94
2022/10/21 04:35:58;;;;;;;6.22;5.63;;;;;;;;;;5039840;28;20504;-94
2022/10/21 04:38:26;;;;;;;8.45;6.65;;;;;;;;;;5054800;28;20060;-93
2022/10/21 04:40:59;;;;;;;6.80;5.70;;;;;;;;;;5054068;28;20046;-94
2022/10/21 04:43:27;;;;;;;7.57;6.00;;;;;;;;;;5053903;28;20124;-94
2022/10/21 04:45:54;;;;;;;10.35;6.57;;;;;;;;;;5054673;28;20053;-93
2022/10/21 04:48:22;;;;;;;10.07;5.55;;;;;;;;;;5056714;28;20406;-92
2022/10/21 04:50:50;;;;;;;7.63;6.05;;;;;;;;;;5056532;28;20046;-92
2022/10/21 04:53:17;;;;;;;10.52;6.70;;;;;;;;;;5055652;28;20064;-94
2022/10/21 04:55:45;;;;;;;6.70;5.90;;;;;;;;;;5059335;28;20064;-91
2022/10/21 04:58:12;;;;;;;7.28;5.95;;;;;;;;;;5062164;28;20069;-90
2022/10/21 05:00:39;;;;;;;5.97;5.47;;;;;;;;;;5053537;28;20058;-93
2022/10/21 05:03:06;;;;;;;8.73;6.70;;;;;;;;;;5051573;28;20099;-91
2022/10/21 05:05:33;;;;;;;11.45;6.95;;;;;;;;;;5053255;28;20055;-92
2022/10/21 05:08:01;;;;;;;7.05;6.13;;;;;;;;;;5054166;28;20053;-92
2022/10/21 05:10:29;;;;;;;9.35;6.15;;;;;;;;;;5054359;28;20081;-92
2022/10/21 05:12:57;;;;;;;11.93;6.25;;;;;;;;;;5055470;28;20052;-93
2022/10/21 05:15:24;;;;;;;8.63;6.15;;;;;;;;;;5053072;28;20049;-93
2022/10/21 05:17:53;;;;;;;7.72;6.80;;;;;;;;;;5037115;28;20136;-93
2022/10/21 05:20:21;;;;;;;8.05;6.47;;;;;;;;;;5053907;28;20084;-96
2022/10/21 05:22:49;;;;;;;8.38;6.70;;;;;;;;;;5053504;28;20055;-93
2022/10/21 05:25:17;;;;;;;9.68;6.53;;;;;;;;;;5055503;28;20056;-95
2022/10/21 05:27:44;;;;;;;8.95;6.70;;;;;;;;;;5054936;28;20144;-94
2022/10/21 05:30:14;;;;;;;9.80;7.18;;;;;;;;;;5055073;28;20057;-94
2022/10/21 05:32:41;;;;;;;10.95;7.00;;;;;;;;;;5052698;28;20053;-94
2022/10/21 05:35:10;;;;;;;8.82;6.30;;;;;;;;;;5054120;28;20054;-95
2022/10/21 05:37:38;;;;;;;7.35;6.15;;;;;;;;;;5052842;28;20045;-95
2022/10/21 05:40:05;;;;;;;9.52;5.60;;;;;;;;;;5052537;28;20056;-94
2022/10/21 05:42:33;;;;;;;9.00;6.35;;;;;;;;;;5040513;28;20049;-93
2022/10/21 05:45:01;;;;;;;12.15;6.32;;;;;;;;;;5055702;28;20041;-94
2022/10/21 05:47:28;;;;;;;13.25;7.05;;;;;;;;;;5055016;28;20578;-95
2022/10/21 05:49:55;;;;;;;10.93;5.72;;;;;;;;;;5058700;28;20405;-94
2022/10/21 05:52:23;;;;;;;13.70;6.60;;;;;;;;;;5056085;28;20047;-94
2022/10/21 05:54:50;;;;;;;10.40;6.30;;;;;;;;;;5058310;28;20046;-94
2022/10/21 05:57:18;;;;;;;11.23;6.40;;;;;;;;;;5058724;28;20073;-94
2022/10/21 05:59:45;;;;;;;13.52;6.85;;;;;;;;;;5057936;28;20053;-94
2022/10/21 06:02:12;;;;;;;20.83;6.70;;;;;;;;;;5055349;28;20049;-93
2022/10/21 06:04:41;;;;;;;12.10;6.05;;;;;;;;;;5057715;28;20132;-94
2022/10/21 06:07:12;;;;;;;11.05;5.72;;;;;;;;;;5052852;28;20053;-95
2022/10/21 06:09:40;;;;;;;11.68;7.07;;;;;;;;;;5053884;28;20145;-94
2022/10/21 06:12:09;;;;;;;11.00;6.95;;;;;;;;;;5053764;28;20046;-94
2022/10/21 06:14:36;;;;;;;12.50;6.43;;;;;;;;;;5053837;28;20202;-90
2022/10/21 06:17:05;;;;;;;26.48;8.07;;;;;;;;;;5052451;28;20049;-96
2022/10/21 06:19:33;;;;;;;13.98;7.30;;;;;;;;;;5054638;28;20059;-94
2022/10/21 06:22:01;;;;;;;12.07;7.38;;;;;;;;;;5052075;28;20050;-94
2022/10/21 06:24:29;;;;;;;9.05;6.85;;;;;;;;;;5053625;28;20080;-94
2022/10/21 06:26:57;;;;;;;10.70;7.00;;;;;;;;;;5037388;28;20045;-92
2022/10/21 06:29:24;;;;;;;8.38;6.47;;;;;;;;;;5052881;28;20115;-94
2022/10/21 06:31:51;;;;;;;15.90;7.40;;;;;;;;;;5050929;28;20263;-93
2022/10/21 06:34:19;;;;;;;8.55;6.78;;;;;;;;;;5034727;28;20053;-94
2022/10/21 06:36:46;;;;;;;11.10;7.00;;;;;;;;;;5053479;28;20088;-92
2022/10/21 06:39:13;;;;;;;13.25;7.13;;;;;;;;;;5055561;28;20054;-90
2022/10/21 06:41:41;;;;;;;9.10;7.53;;;;;;;;;;5055624;28;20057;-92
2022/10/21 06:44:08;;;;;;;9.50;6.95;;;;;;;;;;5055825;28;20561;-94
2022/10/21 06:46:35;;;;;;;14.40;7.57;;;;;;;;;;5040134;28;20513;-91
2022/10/21 06:49:03;;;;;;;13.00;7.13;;;;;;;;;;5055833;28;20117;-94
2022/10/21 06:51:30;;;;;;;7.88;6.65;;;;;;;;;;5055533;28;20504;-94
2022/10/21 06:53:59;;;;;;;8.52;6.32;;;;;;;;;;5055083;28;20060;-94
2022/10/21 06:56:26;;;;;;;13.27;7.10;;;;;;;;;;5055355;28;20060;-93
2022/10/21 06:58:56;;;;;;;6.88;6.20;;;;;;;;;;5057354;28;20080;-95
2022/10/21 07:01:28;;;;;;;8.07;6.43;;;;;;;;;;5055716;28;20041;-92
2022/10/21 07:04:14;;;;;;;13.45;7.18;;;;;;;;;;5053132;28;20132;-91
2022/10/21 07:06:41;;;;;;;11.10;6.30;;;;;;;;;;5056545;28;20053;-92
2022/10/21 07:09:09;;;;;;;10.00;6.38;;;;;;;;;;5054645;28;20493;-91
2022/10/21 07:11:36;;;;;;;9.23;6.35;;;;;;;;;;5055493;28;20124;-93
2022/10/21 07:14:03;;;;;;;13.50;6.45;;;;;;;;;;5054652;28;20042;-91
2022/10/21 07:16:33;;;;;;;8.73;6.53;;;;;;;;;;5055846;28;20107;-94
2022/10/21 07:19:00;;;;;;;13.77;6.30;;;;;;;;;;5055789;28;20095;-91
2022/10/21 07:21:28;;;;;;;12.75;6.50;;;;;;;;;;5056890;28;20058;-95
2022/10/21 07:23:56;;;;;;;10.68;6.88;;;;;;;;;;5059873;28;20068;-90
2022/10/21 07:26:26;;;;;;;10.55;6.25;;;;;;;;;;5063010;28;20049;-91
2022/10/21 07:28:54;;;;;;;10.55;6.38;;;;;;;;;;5055837;28;20402;-94
2022/10/21 07:31:21;;;;;;;10.57;5.95;;;;;;;;;;5056905;28;20057;-90
2022/10/21 07:33:49;;;;;;;14.68;6.68;;;;;;;;;;5055682;28;20113;-92
2022/10/21 07:36:19;;;;;;;8.10;5.93;;;;;;;;;;5055982;28;20045;-92
2022/10/21 07:38:48;;;;;;;13.07;6.65;;;;;;;;;;5040805;28;20049;-93
2022/10/21 07:41:19;;;;;;;8.43;6.32;;;;;;;;;;5056026;28;20053;-92
2022/10/21 07:43:47;;;;;;;10.55;6.82;;;;;;;;;;5055368;28;20449;-93
2022/10/21 07:46:16;;;;;;;10.30;6.53;;;;;;;;;;5056491;28;20053;-92
2022/10/21 07:48:43;;;;;;;12.93;6.70;;;;;;;;;;5054625;28;20521;-93
2022/10/21 07:51:12;;;;;;;9.85;6.63;;;;;;;;;;5056667;28;20059;-90
2022/10/21 07:53:41;;;;;;;64.90;38.28;;;;;;;;;;5056556;28;20045;-94
2022/10/21 07:56:11;;;;;;;13.88;9.27;;;;;;;;;;5054710;28;20045;-94
2022/10/21 07:58:38;;;;;;;15.43;10.23;;;;;;;;;;5055893;28;20513;-92
2022/10/21 08:01:06;;;;;;;24.50;11.75;;;;;;;;;;5055895;28;20057;-91
2022/10/21 08:03:34;;;;;;;9.95;5.93;;;;;;;;;;5056597;28;20072;-94
2022/10/21 08:06:01;;;;;;;9.30;5.35;;;;;;;;;;5054764;28;20049;-93
2022/10/21 08:08:33;;;;;;;9.30;5.47;;;;;;;;;;5056154;28;20079;-92
2022/10/21 08:11:02;;;;;;;10.00;6.38;;;;;;;;;;5055845;28;20060;-92
2022/10/21 08:13:30;;;;;;;10.43;6.22;;;;;;;;;;5054694;28;20482;-93
2022/10/21 08:15:58;;;;;;;12.50;5.45;;;;;;;;;;5053317;28;20055;-91
2022/10/21 08:18:27;;;;;;;9.90;5.95;;;;;;;;;;5054147;28;20052;-93
2022/10/21 08:20:54;;;;;;;15.00;5.45;;;;;;;;;;5058209;28;20139;-92
2022/10/21 08:23:22;;;;;;;19.67;5.72;;;;;;;;;;5055279;28;20050;-95
2022/10/21 08:25:55;;;;;;;10.63;5.95;;;;;;;;;;5039483;28;20115;-90
2022/10/21 08:28:24;;;;;;;10.52;6.38;;;;;;;;;;5055827;28;20090;-92
2022/10/21 08:30:51;;;;;;;6.20;5.60;;;;;;;;;;5055037;28;20124;-90
2022/10/21 08:33:20;;;;;;;10.65;5.63;;;;;;;;;;5055836;28;20103;-94
2022/10/21 08:35:48;;;;;;;7.28;5.65;;;;;;;;;;5040742;28;20049;-90
2022/10/21 08:38:15;;;;;;;10.27;5.82;;;;;;;;;;5055308;28;20128;-92
2022/10/21 08:40:46;;;;;;;19.02;6.30;;;;;;;;;;5053824;28;20061;-93
2022/10/21 08:43:30;;;;;;;14.68;5.60;;;;;;;;;;5053704;28;20053;-94
2022/10/21 08:45:57;;;;;;;7.68;5.03;;;;;;;;;;5055286;28;20056;-93
2022/10/21 08:48:29;;;;;;;10.15;5.07;;;;;;;;;;5056457;28;20056;-92
2022/10/21 08:50:57;;;;;;;6.43;5.55;;;;;;;;;;5055094;28;20076;-94
2022/10/21 08:53:28;;;;;;;8.70;5.47;;;;;;;;;;5056652;28;20133;-94
2022/10/21 08:56:17;;;;;;;10.90;5.13;;;;;;;;;;5044227;28;20076;-94
2022/10/21 08:58:49;;;;;;;10.63;5.07;;;;;;;;;;5056832;28;20041;-95
2022/10/21 09:01:54;;;;;;;12.07;5.15;;;;;;;;;;5041873;28;20053;-94
2022/10/21 09:04:32;;;;;;;9.27;4.63;;;;;;;;;;4982775;28;20121;-95
2022/10/21 09:07:18;;;;;;;5.82;4.65;;;;;;;;;;4980078;28;20090;-94
2022/10/21 09:09:51;;;;;;;9.77;4.90;;;;;;;;;;4978630;28;20141;-94
2022/10/21 09:12:29;;;;;;;7.22;4.40;;;;;;;;;;5009976;28;20590;-95
2022/10/21 09:15:11;;;;;;;5.32;4.85;;;;;;;;;;5056804;28;20053;-91
2022/10/21 09:17:53;;;;;;;11.10;4.57;;;;;;;;;;5054581;28;20140;-93
2022/10/21 09:20:26;;;;;;;5.15;4.65;;;;;;;;;;5055111;28;20059;-89
2022/10/21 09:22:59;;;;;;;7.22;4.60;;;;;;;;;;5052662;28;20045;-89
2022/10/21 09:25:32;;;;;;;9.35;4.53;;;;;;;;;;5051079;28;20562;-91
2022/10/21 09:28:01;;;;;;;6.63;4.60;;;;;;;;;;5050915;28;20045;-90
2022/10/21 09:30:30;;;;;;;8.10;4.55;;;;;;;;;;5050407;28;20099;-94
2022/10/21 09:32:59;;;;;;;9.18;4.50;;;;;;;;;;5051642;28;20049;-93
2022/10/21 09:35:45;;;;;;;10.93;4.32;;;;;;;;;;5051226;28;20517;-92
2022/10/21 09:38:16;;;;;;;11.93;5.32;;;;;;;;;;5050371;28;20059;-92
2022/10/21 09:40:44;;;;;;;7.30;4.70;;;;;;;;;;5051250;28;20053;-91
2022/10/21 09:43:16;;;;;;;7.82;4.28;;;;;;;;;;5050570;28;20058;-92
2022/10/21 09:45:45;;;;;;;7.82;4.70;;;;;;;;;;5054785;28;20053;-90
2022/10/21 09:48:15;;;;;;;8.55;4.22;;;;;;;;;;5037835;28;20050;-92
2022/10/21 09:50:43;;;;;;;8.85;4.47;;;;;;;;;;5053102;28;20433;-90
2022/10/21 09:53:16;;;;;;;5.93;3.58;;;;;;;;;;5039625;28;20069;-91
2022/10/21 09:55:49;;;;;;;13.13;3.85;;;;;;;;;;5056671;28;20045;-92
2022/10/21 09:58:27;;;;;;;7.85;4.00;;;;;;;;;;5052998;28;20046;-93
2022/10/21 10:00:54;;;;;;;14.20;4.53;;;;;;;;;;5052550;28;20049;-94
2022/10/21 10:03:32;;;;;;;9.98;4.03;;;;;;;;;;5050294;28;20047;-90
2022/10/21 10:06:00;;;;;;;9.05;4.20;;;;;;;;;;5034487;28;20057;-92
2022/10/21 10:08:32;;;;;;;8.00;3.78;;;;;;;;;;5035713;28;20057;-91
2022/10/21 10:11:04;;;;;;;10.63;4.15;;;;;;;;;;5051783;28;20132;-91
2022/10/21 10:13:32;;;;;;;5.53;3.50;;;;;;;;;;5056358;28;20134;-94
2022/10/21 10:16:18;;;;;;;8.30;3.90;;;;;;;;;;5056169;28;20449;-93
2022/10/21 10:18:45;;;;;;;11.02;4.07;;;;;;;;;;5054588;28;20056;-91
2022/10/21 10:21:17;;;;;;;7.70;3.90;;;;;;;;;;5040632;28;20073;-91
2022/10/21 10:23:45;;;;;;;8.00;3.40;;;;;;;;;;5056146;28;20049;-92
2022/10/21 10:26:21;;;;;;;6.05;4.00;;;;;;;;;;5056466;28;20057;-92
2022/10/21 10:28:52;;;;;;;7.05;3.63;;;;;;;;;;5056147;28;20048;-90
2022/10/21 10:31:28;;;;;;;5.88;3.30;;;;;;;;;;5055733;28;20473;-92
2022/10/21 10:33:57;;;;;;;5.78;3.35;;;;;;;;;;5057573;28;20128;-90
2022/10/21 10:36:30;;;;;;;6.57;3.85;;;;;;;;;;5056514;28;20052;-91
2022/10/21 10:38:59;;;;;;;8.15;3.30;;;;;;;;;;5035667;28;20053;-91
2022/10/21 10:41:31;;;;;;;8.13;3.55;;;;;;;;;;5055841;28;20053;-93
2022/10/21 10:43:58;;;;;;;7.25;3.28;;;;;;;;;;5059365;28;20053;-88
2022/10/21 10:46:30;;;;;;;4.88;3.60;;;;;;;;;;5042383;28;20079;-93
2022/10/21 10:49:03;;;;;;;4.97;3.15;;;;;;;;;;5055855;28;20052;-93
2022/10/21 10:51:31;;;;;;;4.68;2.92;;;;;;;;;;5057297;28;20406;-91
2022/10/21 10:53:59;;;;;;;4.05;2.58;;;;;;;;;;5056484;28;20053;-90
2022/10/21 10:56:28;;;;;;;4.63;2.60;;;;;;;;;;5059332;28;20057;-93
2022/10/21 10:59:05;;;;;;;4.60;3.00;;;;;;;;;;5056223;28;20054;-93
2022/10/21 11:01:34;;;;;;;5.93;3.42;;;;;;;;;;5043569;28;20041;-93
2022/10/21 11:04:05;;;;;;;3.25;2.95;;;;;;;;;;5056720;28;20128;-93
2022/10/21 11:06:35;;;;;;;4.47;3.20;;;;;;;;;;5041280;28;20052;-90
2022/10/21 11:09:03;;;;;;;5.97;2.80;;;;;;;;;;5056881;28;20057;-93
2022/10/21 11:11:36;;;;;;;5.22;3.00;;;;;;;;;;5040383;28;20046;-89
2022/10/21 11:14:03;;;;;;;4.97;3.10;;;;;;;;;;5055562;28;20056;-90
2022/10/21 11:16:39;;;;;;;4.93;3.25;;;;;;;;;;5039364;28;20061;-92
2022/10/21 11:19:33;;;;;;;6.57;3.22;;;;;;;;;;5052775;28;20046;-91
2022/10/21 11:22:23;;;;;;;7.80;3.17;;;;;;;;;;5055222;28;20049;-89
2022/10/21 11:24:54;;;;;;;4.90;3.00;;;;;;;;;;5052033;28;20061;-89
2022/10/21 11:27:40;;;;;;;8.75;3.15;;;;;;;;;;5052074;28;20049;-89
2022/10/21 11:30:12;;;;;;;8.27;3.70;;;;;;;;;;5036510;28;20049;-88
2022/10/21 11:32:49;;;;;;;6.72;3.80;;;;;;;;;;5052200;28;20045;-86
2022/10/21 11:35:46;;;;;;;5.25;3.60;;;;;;;;;;5051376;28;20057;-88
2022/10/21 11:38:22;;;;;;;7.93;3.95;;;;;;;;;;5023454;28;20419;-87
2022/10/21 11:40:53;;;;;;;8.30;3.88;;;;;;;;;;5036156;28;20045;-87
2022/10/21 11:43:43;;;;;;;7.05;4.40;;;;;;;;;;5051402;28;20141;-87
2022/10/21 11:46:18;;;;;;;10.00;4.88;;;;;;;;;;5035893;28;20049;-88
2022/10/21 11:48:51;;;;;;;7.13;4.32;;;;;;;;;;5051272;28;20045;-86
2022/10/21 11:51:31;;;;;;;6.10;4.32;;;;;;;;;;5051748;28;20054;-89
2022/10/21 11:54:01;;;;;;;8.95;4.85;;;;;;;;;;5051078;28;20089;-87
2022/10/21 11:56:38;;;;;;;14.63;4.90;;;;;;;;;;5050963;28;20057;-87
2022/10/21 11:59:25;;;;;;;4.88;4.35;;;;;;;;;;5050875;28;20493;-86
2022/10/21 12:01:55;;;;;;;6.57;5.30;;;;;;;;;;5035394;28;20107;-87
2022/10/21 12:04:29;;;;;;;6.95;4.20;;;;;;;;;;5050806;28;20453;-87
2022/10/21 12:06:56;;;;;;;;;;;;;;;;;;5035943;28;20045;-87
2022/10/21 12:09:29;;;;;;;4.20;3.80;;;;;;;;;;5035141;28;19921;-85
2022/10/21 12:12:09;;;;;;;3.50;3.15;;;;;;;;;;5051219;28;20049;-90
2022/10/21 12:14:39;;;;;;;3.28;2.78;;;;;;;;;;5035349;28;20053;-87
2022/10/21 12:17:08;;;;;;;3.38;3.08;;;;;;;;;;5050741;28;20107;-91
2022/10/21 12:19:36;;;;;;;4.25;3.10;;;;;;;;;;5035546;28;20414;-87
2022/10/21 12:22:03;;;;;;;3.22;2.50;;;;;;;;;;5050789;28;20060;-88
2022/10/21 12:24:31;;;;;;;3.60;3.25;;;;;;;;;;5035166;28;20053;-88
2022/10/21 12:27:10;;;;;;;2.80;2.60;;;;;;;;;;5050602;28;20045;-88
2022/10/21 12:29:41;;;;;;;3.72;2.30;;;;;;;;;;5049902;28;20513;-87
2022/10/21 12:32:25;;;;;;;2.80;2.60;;;;;;;;;;5050838;28;20410;-87
2022/10/21 12:34:53;;;;;;;2.58;2.45;;;;;;;;;;5050592;28;20049;-87
2022/10/21 12:37:39;;;;;;;1.80;1.70;;;;;;;;;;5050494;28;20132;-87
2022/10/21 12:40:10;;;;;;;2.05;1.95;;;;;;;;;;5050920;28;20057;-88
2022/10/21 12:42:42;;;;;;;1.85;1.75;;;;;;;;;;5052096;28;20124;-88
2022/10/21 12:45:29;;;;;;;1.33;1.33;;;;;;;;;;5054577;28;20054;-88
2022/10/21 12:47:57;;;;;;;1.58;1.48;;;;;;;;;;5035305;28;20048;-88
2022/10/21 12:50:28;;;;;;;1.58;1.27;;;;;;;;;;5051035;28;20065;-88
2022/10/21 12:53:07;;;;;;;4.57;1.20;;;;;;;;;;5050687;28;20132;-88
2022/10/21 12:55:39;;;;;;;1.13;0.95;;;;;;;;;;5034633;28;20049;-89
2022/10/21 12:58:17;;;;;;;1.35;1.23;;;;;;;;;;5050422;28;20050;-89
2022/10/21 13:00:48;;;;;;;1.67;0.93;;;;;;;;;;5034434;28;20042;-88
2022/10/21 13:03:18;;;;;;;1.08;0.60;;;;;;;;;;5034353;28;20058;-87
2022/10/21 13:05:45;;;;;;;3.00;0.75;;;;;;;;;;5034786;28;20049;-88
2022/10/21 13:08:21;;;;;;;1.67;0.90;;;;;;;;;;5049919;28;20056;-89
2022/10/21 13:11:04;;;;;;;0.50;0.50;;;;;;;;;;5049838;28;20053;-88
2022/10/21 13:13:34;;;;;;;2.03;0.70;;;;;;;;;;5049731;28;20050;-88
2022/10/21 13:16:20;;;;;;;0.65;0.60;;;;;;;;;;5050224;28;20052;-88
2022/10/21 13:18:50;;;;;;;1.08;0.40;;;;;;;;;;5050000;28;20053;-88
2022/10/21 13:21:23;;;;;;;2.45;0.73;;;;;;;;;;5049731;28;20052;-88
2022/10/21 13:23:51;;;;;;;1.60;0.90;;;;;;;;;;5049787;28;20053;-87
2022/10/21 13:26:21;;;;;;;2.15;0.40;;;;;;;;;;5034178;28;20056;-87
2022/10/21 13:29:19;;;;;;;0.63;0.30;;;;;;;;;;5050030;28;20049;-88
2022/10/21 13:31:46;;;;;;;1.98;0.20;;;;;;;;;;5035345;28;20421;-88
2022/10/21 13:34:28;;;;;;;0.17;0.17;;;;;;;;;;5049373;28;20148;-88
2022/10/21 13:36:56;;;;;;;0.20;0.20;;;;;;;;;;5049498;28;20052;-88
2022/10/21 13:39:26;;;;;;;3.05;1.10;;;;;;;;;;5049969;28;20042;-92
2022/10/21 13:42:02;;;;;;;1.02;0.40;;;;;;;;;;5049464;28;20140;-87
2022/10/21 13:44:39;;;;;;;0.63;0.10;;;;;;;;;;5048797;28;20051;-86
2022/10/21 13:47:19;;;;;;;0.85;0.38;;;;;;;;;;5033506;28;20052;-93
2022/10/21 13:49:50;;;;;;;0.30;0.30;;;;;;;;;;5049499;28;20053;-88
2022/10/21 13:52:17;;;;;;;1.90;0.40;;;;;;;;;;5049352;28;20045;-87
2022/10/21 13:54:44;;;;;;;0.30;0.30;;;;;;;;;;5048893;28;20053;-90
2022/10/21 13:57:19;;;;;;;0.30;0.30;;;;;;;;;;5049581;28;20336;-89
2022/10/21 13:59:58;;;;;;;0.45;0.40;;;;;;;;;;5050115;28;20052;-89
2022/10/21 14:02:25;;;;;;;0.40;0.40;;;;;;;;;;5049773;28;20049;-87
2022/10/21 14:04:53;;;;;;;1.55;0.50;;;;;;;;;;5033643;28;20049;-88
2022/10/21 14:07:20;;;;;;;0.60;0.60;;;;;;;;;;5049078;28;20049;-89
2022/10/21 14:09:50;;;;;;;0.65;0.50;;;;;;;;;;5033471;28;20113;-88
2022/10/21 14:12:21;;;;;;;0.82;0.60;;;;;;;;;;5033566;28;20405;-88
2022/10/21 14:14:49;;;;;;;2.03;0.60;;;;;;;;;;5032550;28;20041;-87
2022/10/21 14:17:21;;;;;;;0.73;0.50;;;;;;;;;;5033144;28;20053;-86
2022/10/21 14:19:59;;;;;;;1.80;0.90;;;;;;;;;;5048542;28;20486;-86
2022/10/21 14:22:28;;;;;;;0.95;0.90;;;;;;;;;;5033425;28;20051;-86
2022/10/21 14:24:57;;;;;;;1.98;1.88;;;;;;;;;;5048557;28;20050;-86
2022/10/21 14:27:29;;;;;;;3.58;1.30;;;;;;;;;;5048774;28;20060;-86
2022/10/21 14:29:56;;;;;;;6.20;1.23;;;;;;;;;;5033369;28;20050;-86
2022/10/21 14:32:25;;;;;;;1.30;1.20;;;;;;;;;;5032993;28;20045;-86
2022/10/21 14:34:55;;;;;;;1.25;1.15;;;;;;;;;;5033078;28;20129;-86
2022/10/21 14:37:22;;;;;;;4.68;1.23;;;;;;;;;;5033469;28;20056;-87
2022/10/21 14:39:50;;;;;;;2.25;1.13;;;;;;;;;;5033052;28;20053;-86
2022/10/21 14:42:19;;;;;;;2.50;1.30;;;;;;;;;;5032951;28;20537;-86
2022/10/21 14:44:47;;;;;;;2.15;1.50;;;;;;;;;;5032883;28;20045;-86
2022/10/21 14:47:16;;;;;;;2.35;1.50;;;;;;;;;;5033235;28;20053;-87
2022/10/21 14:49:48;;;;;;;1.40;1.30;;;;;;;;;;5048839;28;20470;-86
2022/10/21 14:52:20;;;;;;;1.90;1.40;;;;;;;;;;5032704;28;20064;-86
2022/10/21 14:54:58;;;;;;;1.40;1.38;;;;;;;;;;5048574;28;20046;-88
2022/10/21 14:57:31;;;;;;;2.63;1.70;;;;;;;;;;5027370;28;20414;-86
2022/10/21 14:59:59;;;;;;;1.88;1.50;;;;;;;;;;5036857;28;20050;-86
2022/10/21 15:02:32;;;;;;;4.00;1.60;;;;;;;;;;5052145;28;20050;-87